Time;durP1;ratioP1;P1;durP2;ratioP2;P2;SDS_P1;SDS_P2;PMS_P1;PMS_P2;Temp;Humidity;BMP_temperature;BMP_pressure;BME280_temperature;BME280_humidity;BME280_pressure;Samples;Min_cycle;Max_cycle;Signal;HPM_P1;HPM_P2
2022/09/11 00:01:52;;;;;;;;;;;;;;;19.31;63.75;100655.00;4985544;28;6972;-84
2022/09/11 00:04:45;;;;;;;;;;;;;;;19.31;63.87;100648.91;4982699;28;8427;-83
2022/09/11 00:07:19;;;;;;;;;;;;;;;19.26;63.68;100646.22;4977238;28;6968;-83
2022/09/11 00:09:47;;;;;;;;;;;;;;;19.27;63.38;100650.59;4982647;28;6951;-84
2022/09/11 00:12:24;;;;;;;;;;;;;;;19.22;64.11;100642.75;4991749;28;7159;-84
2022/09/11 00:15:01;;;;;;;;;;;;;;;19.21;63.91;100651.34;4977593;28;8632;-84
2022/09/11 00:17:33;;;;;;;;;;;;;;;19.22;64.24;100647.06;4994536;28;6895;-84
2022/09/11 00:20:00;;;;;;;;;;;;;;;19.21;63.91;100653.09;4993455;28;6982;-83
2022/09/11 00:22:31;;;;;;;;;;;;;;;19.15;64.17;100644.34;4977348;28;7015;-84
2022/09/11 00:24:58;;;;;;;;;;;;;;;19.17;63.86;100646.97;4981166;28;6804;-84
2022/09/11 00:27:24;;;;;;;;;;;;;;;19.19;64.34;100647.88;4993145;28;7014;-85
2022/09/11 00:29:55;;;;;;;;;;;;;;;19.22;64.15;100650.53;4977416;28;8423;-84
2022/09/11 00:32:23;;;;;;;;;;;;;;;19.24;64.48;100641.03;4991666;28;6987;-84
2022/09/11 00:34:52;;;;;;;;;;;;;;;19.27;64.17;100642.81;4991461;28;6847;-83
2022/09/11 00:37:18;;;;;;;;;;;;;;;19.29;64.57;100649.75;4976140;28;6975;-84
2022/09/11 00:39:49;;;;;;;;;;;;;;;19.32;64.26;100650.69;4991885;28;6942;-84
2022/09/11 00:42:22;;;;;;;;;;;;;;;19.34;64.57;100651.56;4992378;28;6819;-84
2022/09/11 00:47:50;;;;;;;;;;;;;;;19.32;64.33;100651.53;4974359;28;6803;-84
2022/09/11 00:50:42;;;;;;;;;;;;;;;19.30;63.75;100655.84;4993082;28;7213;-84
2022/09/11 00:53:37;;;;;;;;;;;;;;;19.28;63.94;100658.41;4989773;28;6800;-85
2022/09/11 00:56:41;;;;;;;;;;;;;;;19.24;64.19;100664.41;4978344;28;6977;-84
2022/09/11 00:59:11;;;;;;;;;;;;;;;19.21;64.40;100666.94;4989998;28;6796;-84
2022/09/11 01:01:37;;;;;;;;;;;;;;;19.20;63.99;100665.19;4973341;28;7002;-84
2022/09/11 01:04:15;;;;;;;;;;;;;;;19.20;64.37;100669.53;4993360;28;7142;-84
2022/09/11 01:06:42;;;;;;;;;;;;;;;19.19;64.00;100676.44;4981848;28;6974;-85
2022/09/11 01:09:18;;;;;;;;;;;;;;;;;;;;;
2022/09/11 01:12:27;;;;;;;;;;;;;;;19.19;64.08;100668.66;4993753;28;6898;-85
2022/09/11 01:16:02;;;;;;;;;;;;;;;19.20;63.82;100672.13;4981884;28;6976;-85
2022/09/11 01:18:59;;;;;;;;;;;;;;;19.20;64.28;100673.00;4964624;28;6840;-84
2022/09/11 01:22:06;;;;;;;;;;;;;;;19.15;63.86;100666.88;4984266;28;7007;-84
2022/09/11 01:25:11;;;;;;;;;;;;;;;19.10;64.48;100671.97;4971016;28;6993;-84
2022/09/11 01:28:31;;;;;;;;;;;;;;;19.09;64.07;100674.53;4982747;28;8882;-84
2022/09/11 01:31:10;;;;;;;;;;;;;;;19.06;63.74;100680.53;4945243;28;7307;-84
2022/09/11 01:34:25;;;;;;;;;;;;;;;;;;;;;
2022/09/11 01:37:04;;;;;;;;;;;;;;;18.98;63.90;100688.19;4977441;28;6824;-84
2022/09/11 01:39:53;;;;;;;;;;;;;;;18.95;64.31;100693.34;4979372;28;6988;-84
2022/09/11 01:42:23;;;;;;;;;;;;;;;18.93;64.07;100695.03;4978778;28;6915;-85
2022/09/11 01:45:06;;;;;;;;;;;;;;;18.91;64.20;100695.84;4992896;28;6977;-84
2022/09/11 01:47:36;;;;;;;;;;;;;;;18.92;64.46;100707.97;4981670;28;6804;-84
2022/09/11 01:50:28;;;;;;;;;;;;;;;18.91;64.62;100703.63;4973817;28;7314;-84
2022/09/11 01:53:13;;;;;;;;;;;;;;;;;;;;;
2022/09/11 01:56:17;;;;;;;;;;;;;;;18.98;64.53;100687.31;4974890;28;6824;-85
2022/09/11 01:58:58;;;;;;;;;;;;;;;;;;;;;
2022/09/11 02:01:38;;;;;;;;;;;;;;;19.07;64.49;100694.44;4978316;28;7399;-83
2022/09/11 02:05:00;;;;;;;;;;;;;;;19.07;64.18;100692.69;4992130;28;6823;-83
2022/09/11 02:08:20;;;;;;;;;;;;;;;19.10;64.64;100697.97;4992740;28;7059;-83
2022/09/11 02:11:02;;;;;;;;;;;;;;;19.09;64.95;100701.41;4975248;28;7459;-83
2022/09/11 02:14:03;;;;;;;;;;;;;;;19.13;64.19;100710.13;4992591;28;8429;-83
2022/09/11 02:17:42;;;;;;;;;;;;;;;19.18;64.88;100711.06;4992302;28;6935;-82
2022/09/11 02:20:11;;;;;;;;;;;;;;;19.28;64.71;100720.78;4977463;28;6887;-83
2022/09/11 02:22:37;;;;;;;;;;;;;;;19.38;65.08;100716.63;4972953;28;8478;-83
2022/09/11 02:25:04;;;;;;;;;;;;;;;19.47;64.86;100715.03;4992480;28;6950;-83
2022/09/11 02:27:32;;;;;;;;;;;;;;;19.53;64.99;100718.59;4991361;28;6975;-83
2022/09/11 02:30:08;;;;;;;;;;;;;;;19.61;64.32;100720.44;4994751;28;7225;-83
2022/09/11 02:32:42;;;;;;;;;;;;;;;19.66;64.59;100716.19;4980339;28;7051;-83
2022/09/11 02:35:13;;;;;;;;;;;;;;;19.69;64.15;100718.81;4973937;28;6991;-83
2022/09/11 02:38:30;;;;;;;;;;;;;;;19.71;64.49;100727.53;4990228;28;6983;-83
2022/09/11 02:41:24;;;;;;;;;;;;;;;19.75;64.94;100734.53;4918104;29;6965;-84
2022/09/11 02:44:31;;;;;;;;;;;;;;;19.78;64.59;100728.50;4917963;29;7020;-83
2022/09/11 02:48:01;;;;;;;;;;;;;;;19.80;64.46;100732.88;4992790;28;6964;-84
2022/09/11 02:51:00;;;;;;;;;;;;;;;19.84;64.79;100729.47;4975534;28;6962;-83
2022/09/11 02:53:43;;;;;;;;;;;;;;;19.87;64.88;100727.75;4972621;28;8457;-83
2022/09/11 02:56:42;;;;;;;;;;;;;;;19.88;64.03;100730.38;4987375;28;6839;-82
2022/09/11 02:59:24;;;;;;;;;;;;;;;19.92;64.07;100728.72;4976900;28;7169;-83
2022/09/11 03:02:00;;;;;;;;;;;;;;;19.95;64.59;100739.19;4988415;28;7185;-83
2022/09/11 03:04:30;;;;;;;;;;;;;;;19.94;63.91;100727.91;4990712;28;8084;-83
2022/09/11 03:06:58;;;;;;;;;;;;;;;19.97;64.42;100732.28;4992673;28;8477;-83
2022/09/11 03:09:27;;;;;;;;;;;;;;;19.96;64.23;100734.00;4977924;28;7168;-83
2022/09/11 03:12:02;;;;;;;;;;;;;;;19.97;64.23;100745.28;4976689;28;7908;-83
2022/09/11 03:14:36;;;;;;;;;;;;;;;19.97;64.09;100732.28;4974033;28;7258;-85
2022/09/11 03:17:07;;;;;;;;;;;;;;;19.95;64.49;100737.47;4972699;28;6996;-83
2022/09/11 03:19:35;;;;;;;;;;;;;;;19.96;63.79;100744.41;4990408;28;6852;-82
2022/09/11 03:22:22;;;;;;;;;;;;;;;20.00;64.23;100741.84;4976580;28;8448;-83
2022/09/11 03:24:48;;;;;;;;;;;;;;;20.01;64.22;100741.88;4978710;28;6986;-83
2022/09/11 03:27:20;;;;;;;;;;;;;;;20.01;64.31;100733.19;5007631;28;7135;-83
2022/09/11 03:29:55;;;;;;;;;;;;;;;20.03;64.03;100734.97;4994206;28;6840;-83
2022/09/11 03:32:24;;;;;;;;;;;;;;;20.07;64.04;100743.69;4980455;28;6811;-83
2022/09/11 03:34:51;;;;;;;;;;;;;;;20.06;64.07;100727.19;4992774;28;8448;-83
2022/09/11 03:37:25;;;;;;;;;;;;;;;20.10;64.20;100731.63;4992431;28;6986;-83
2022/09/11 03:40:14;;;;;;;;;;;;;;;20.12;63.81;100731.63;4993263;28;6988;-83
2022/09/11 03:42:40;;;;;;;;;;;;;;;20.12;64.10;100729.91;4993353;28;6994;-83
2022/09/11 03:45:06;;;;;;;;;;;;;;;20.11;63.31;100728.16;4975366;28;7173;-82
2022/09/11 03:47:32;;;;;;;;;;;;;;;20.10;63.82;100731.63;4970574;28;6972;-83
2022/09/11 03:50:01;;;;;;;;;;;;;;;20.09;63.49;100724.66;4974315;28;6963;-83
2022/09/11 03:52:28;;;;;;;;;;;;;;;20.08;63.53;100728.09;4979858;28;6825;-84
2022/09/11 03:54:53;;;;;;;;;;;;;;;20.09;63.68;100724.66;4992428;28;7022;-83
2022/09/11 03:57:19;;;;;;;;;;;;;;;20.08;63.75;100725.50;4980516;28;8377;-83
2022/09/11 03:59:45;;;;;;;;;;;;;;;20.08;63.98;100722.03;4990290;28;7380;-83
2022/09/11 04:02:11;;;;;;;;;;;;;;;20.06;63.77;100724.59;4974119;28;7017;-83
2022/09/11 04:04:47;;;;;;;;;;;;;;;20.05;63.82;100725.47;4990547;28;6827;-83
2022/09/11 04:07:12;;;;;;;;;;;;;;;20.04;63.53;100726.31;4982203;28;6824;-83
2022/09/11 04:09:38;;;;;;;;;;;;;;;20.03;63.67;100724.56;4992848;28;8387;-83
2022/09/11 04:12:04;;;;;;;;;;;;;;;20.04;63.60;100730.63;4990932;28;8558;-83
2022/09/11 04:14:29;;;;;;;;;;;;;;;20.02;63.46;100729.75;4990417;28;8843;-84
2022/09/11 04:16:55;;;;;;;;;;;;;;;20.02;63.72;100728.03;4977484;28;7537;-83
2022/09/11 04:19:23;;;;;;;;;;;;;;;20.01;63.58;100731.47;4993346;28;8571;-83
2022/09/11 04:21:49;;;;;;;;;;;;;;;19.99;63.39;100735.78;4965117;28;6976;-83
2022/09/11 04:24:15;;;;;;;;;;;;;;;19.98;63.48;100731.41;4991385;28;6950;-83
2022/09/11 04:26:41;;;;;;;;;;;;;;;19.97;63.58;100740.06;4994030;28;6951;-83
2022/09/11 04:29:07;;;;;;;;;;;;;;;19.95;63.56;100732.28;4979265;28;7128;-83
2022/09/11 04:31:35;;;;;;;;;;;;;;;19.94;63.55;100733.13;4991803;28;6970;-83
2022/09/11 04:34:01;;;;;;;;;;;;;;;19.94;62.96;100743.53;4991792;28;6971;-83
2022/09/11 04:36:28;;;;;;;;;;;;;;;19.95;63.62;100744.38;4989573;28;7220;-83
2022/09/11 04:38:57;;;;;;;;;;;;;;;19.97;63.64;100729.66;4991681;28;6982;-83
2022/09/11 04:41:25;;;;;;;;;;;;;;;19.95;63.64;100739.19;4972288;28;7212;-83
2022/09/11 04:43:59;;;;;;;;;;;;;;;19.94;63.49;100733.13;4993813;28;6887;-83
2022/09/11 04:46:25;;;;;;;;;;;;;;;19.96;63.86;100735.72;4975204;28;6819;-83
2022/09/11 04:49:01;;;;;;;;;;;;;;;19.96;63.57;100738.31;4989990;28;7163;-83
2022/09/11 04:51:37;;;;;;;;;;;;;;;19.99;63.20;100751.41;4988247;28;9389;-84
2022/09/11 04:54:04;;;;;;;;;;;;;;;19.99;64.01;100754.00;4988843;28;6960;-83
2022/09/11 04:56:33;;;;;;;;;;;;;;;20.00;63.58;100765.25;4991238;28;7150;-83
2022/09/11 04:59:04;;;;;;;;;;;;;;;19.99;63.24;100761.81;4987895;28;6844;-83
2022/09/11 05:01:32;;;;;;;;;;;;;;;19.99;63.47;100764.41;4990292;28;7278;-83
2022/09/11 05:04:02;;;;;;;;;;;;;;;19.99;63.35;100761.81;4973901;28;6979;-83
2022/09/11 05:06:29;;;;;;;;;;;;;;;19.97;63.73;100761.78;4992696;28;8612;-83
2022/09/11 05:09:01;;;;;;;;;;;;;;;19.96;63.86;100765.22;4992298;28;7190;-82
2022/09/11 05:11:29;;;;;;;;;;;;;;;19.98;63.45;100767.84;4968847;28;7004;-83
2022/09/11 05:13:57;;;;;;;;;;;;;;;19.96;63.59;100767.84;4992866;28;6882;-83
2022/09/11 05:16:28;;;;;;;;;;;;;;;19.98;63.52;100773.91;4975731;28;6994;-83
2022/09/11 05:18:56;;;;;;;;;;;;;;;19.98;63.70;100778.22;4989977;28;7073;-83
2022/09/11 05:21:25;;;;;;;;;;;;;;;20.00;63.46;100781.75;4988763;28;6861;-83
2022/09/11 05:23:56;;;;;;;;;;;;;;;20.00;63.43;100791.28;4989307;28;6818;-83
2022/09/11 05:26:30;;;;;;;;;;;;;;;20.00;63.57;100781.75;4971589;28;7579;-83
2022/09/11 05:29:02;;;;;;;;;;;;;;;20.00;63.68;100786.97;4975309;28;6990;-83
2022/09/11 05:31:31;;;;;;;;;;;;;;;20.00;63.43;100780.88;4974889;28;6979;-82
2022/09/11 05:33:59;;;;;;;;;;;;;;;20.03;63.74;100781.81;4978205;28;6969;-83
2022/09/11 05:36:27;;;;;;;;;;;;;;;20.07;63.95;100794.00;4974434;28;7259;-82
2022/09/11 05:38:53;;;;;;;;;;;;;;;20.12;63.72;100796.66;4975196;28;8883;-83
2022/09/11 05:41:23;;;;;;;;;;;;;;;20.15;63.74;100793.22;4992350;28;6999;-83
2022/09/11 05:43:54;;;;;;;;;;;;;;;20.17;63.62;100800.22;4976657;28;7191;-84
2022/09/11 05:46:21;;;;;;;;;;;;;;;20.21;63.50;100809.81;4988745;28;6812;-83
2022/09/11 05:48:47;;;;;;;;;;;;;;;20.24;63.62;100798.56;4990692;28;7055;-82
2022/09/11 05:51:22;;;;;;;;;;;;;;;20.26;63.42;100804.66;4990986;28;7273;-83
2022/09/11 05:53:56;;;;;;;;;;;;;;;20.32;63.46;100817.78;4990892;28;6812;-83
2022/09/11 05:56:24;;;;;;;;;;;;;;;20.35;63.47;100811.75;4989957;28;6983;-83
2022/09/11 05:58:53;;;;;;;;;;;;;;;20.38;63.77;100817.88;4989267;28;7134;-83
2022/09/11 06:01:42;;;;;;;;;;;;;;;20.39;63.32;100819.63;4989934;28;8454;-83
2022/09/11 06:04:21;;;;;;;;;;;;;;;;;;;;;
2022/09/11 06:07:42;;;;;;;;;;;;;;;;;;;;;
2022/09/11 06:10:08;;;;;;;;;;;;;;;20.53;63.64;100844.97;4959695;28;6788;-83
2022/09/11 06:12:50;;;;;;;;;;;;;;;20.56;63.40;100839.78;4973566;28;6812;-83
2022/09/11 06:15:40;;;;;;;;;;;;;;;;;;;;;
2022/09/11 06:22:16;;;;;;;;;;;;;;;20.67;63.14;100863.38;4982371;28;6785;-83
2022/09/11 06:25:43;;;;;;;;;;;;;;;20.67;62.88;100851.25;4973755;28;8481;-83
2022/09/11 06:27:47;;;;;;;;;;;;;;;20.69;62.79;100851.25;4966878;28;7007;-83
2022/09/11 06:30:24;;;;;;;;;;;;;;;20.68;63.16;100846.91;4975206;28;6961;-83
2022/09/11 06:33:10;;;;;;;;;;;;;;;;;;;;;
2022/09/11 06:36:31;;;;;;;;;;;;;;;;;;;;;
2022/09/11 06:39:22;;;;;;;;;;;;;;;20.68;62.97;100857.31;4976754;28;6837;-83
2022/09/11 06:42:06;;;;;;;;;;;;;;;;;;;;;
2022/09/11 06:45:34;;;;;;;;;;;;;;;;;;;;;
2022/09/11 06:51:34;;;;;;;;;;;;;;;;;;;;;
2022/09/11 06:54:20;;;;;;;;;;;;;;;20.61;63.45;100865.88;4987210;28;6800;-83
2022/09/11 06:56:46;;;;;;;;;;;;;;;20.61;63.01;100864.19;4993891;28;8860;-83
2022/09/11 06:59:24;;;;;;;;;;;;;;;20.64;63.18;100864.22;4987049;28;6965;-83
2022/09/11 07:02:33;;;;;;;;;;;;;;;20.70;62.96;100870.38;4994016;28;8615;-82
2022/09/11 07:05:20;;;;;;;;;;;;;;;;;;;;;
2022/09/11 07:07:57;;;;;;;;;;;;;;;;;;;;;
2022/09/11 07:11:16;;;;;;;;;;;;;;;;;;;;;
2022/09/11 07:14:32;;;;;;;;;;;;;;;;;;;;;
2022/09/11 07:17:06;;;;;;;;;;;;;;;21.18;64.41;100878.81;4989413;28;6860;-83
2022/09/11 07:23:24;;;;;;;;;;;;;;;21.50;63.27;100873.94;4972276;28;6837;-83
2022/09/11 07:26:16;;;;;;;;;;;;;;;;;;;;;
2022/09/11 07:28:53;;;;;;;;;;;;;;;;;;;;;
2022/09/11 07:32:32;;;;;;;;;;;;;;;;;;;;;
2022/09/11 07:34:25;;;;;;;;;;;;;;;21.77;62.83;100875.13;4972205;28;6791;-83
2022/09/11 07:37:24;;;;;;;;;;;;;;;;;;;;;
2022/09/11 07:40:45;;;;;;;;;;;;;;;21.90;63.04;100877.81;4977291;28;6821;-83
2022/09/11 07:43:34;;;;;;;;;;;;;;;22.07;63.20;100875.38;4976406;28;7083;-83
2022/09/11 07:57:59;;;;;;;;;;;;;;;;;;;;;
2022/09/11 08:01:07;;;;;;;;;;;;;;;;;;;;;
2022/09/11 08:04:24;;;;;;;;;;;;;;;;;;;;;
2022/09/11 08:06:50;;;;;;;;;;;;;;;22.73;61.35;100881.94;4928907;28;6828;-84
2022/09/11 08:12:46;;;;;;;;;;;;;;;22.89;61.76;100883.75;4933936;29;7091;-84
2022/09/11 08:18:55;;;;;;;;;;;;;;;23.31;61.95;100885.69;4949810;28;8440;-84
2022/09/11 08:21:27;;;;;;;;;;;;;;;23.50;61.56;100885.72;4975073;28;7402;-84
2022/09/11 08:23:56;;;;;;;;;;;;;;;23.60;60.85;100890.09;4976551;28;6974;-84
2022/09/11 08:26:45;;;;;;;;;;;;;;;;;;;;;
2022/09/11 08:30:18;;;;;;;;;;;;;;;;;;;;;
2022/09/11 08:33:39;;;;;;;;;;;;;;;;;;;;;
2022/09/11 08:36:42;;;;;;;;;;;;;;;23.72;59.79;100908.44;4935774;29;6820;-84
2022/09/11 08:39:47;;;;;;;;;;;;;;;23.74;59.39;100915.41;4939109;29;6830;-84
2022/09/11 08:46:03;;;;;;;;;;;;;;;23.69;59.09;100915.38;4986056;28;6941;-84
2022/09/11 08:49:25;;;;;;;;;;;;;;;23.69;58.96;100918.91;4962477;28;6824;-84
2022/09/11 08:55:59;;;;;;;;;;;;;;;23.97;58.65;100924.16;4934435;29;6953;-84
2022/09/11 08:59:42;;;;;;;;;;;;;;;;;;;;;
2022/09/11 09:06:27;;;;;;;;;;;;;;;;;;;;;
2022/09/11 09:10:01;;;;;;;;;;;;;;;24.19;56.70;100921.56;4955044;28;8261;-85
2022/09/11 09:13:37;;;;;;;;;;;;;;;24.10;56.68;100925.09;4977990;28;6814;-84
2022/09/11 09:17:08;;;;;;;;;;;;;;;24.02;56.75;100932.03;4976051;28;6808;-84
2022/09/11 09:20:55;;;;;;;;;;;;;;;23.85;56.02;100940.72;4991119;28;7097;-84
2022/09/11 09:24:04;;;;;;;;;;;;;;;;;;;;;
2022/09/11 09:27:23;;;;;;;;;;;;;;;23.42;56.80;100936.25;4989366;28;6887;-84
2022/09/11 09:30:42;;;;;;;;;;;;;;;23.45;56.61;100940.63;4926763;28;6805;-84
2022/09/11 09:34:09;;;;;;;;;;;;;;;23.46;56.57;100944.09;4958653;28;11328;-84
2022/09/11 09:37:54;;;;;;;;;;;;;;;;;;;;;
2022/09/11 09:41:09;;;;;;;;;;;;;;;23.52;56.94;100941.53;4877465;29;6850;-84
2022/09/11 09:44:22;;;;;;;;;;;;;;;;;;;;;
2022/09/11 09:51:49;;;;;;;;;;;;;;;;;;;;;
2022/09/11 09:55:16;;;;;;;;;;;;;;;;;;;;;
2022/09/11 09:58:02;;;;;;;;;;;;;;;24.85;56.55;100942.47;4894701;29;6809;-84
2022/09/11 10:01:32;;;;;;;;;;;;;;;25.33;55.98;100943.16;4961417;28;6834;-84
2022/09/11 10:04:47;;;;;;;;;;;;;;;25.86;54.70;100937.63;4976189;28;7170;-85
2022/09/11 10:11:39;;;;;;;;;;;;;;;;;;;;;
2022/09/11 10:21:58;;;;;;;;;;;;;;;25.86;50.90;100942.88;4914161;28;6830;-84
2022/09/11 10:24:58;;;;;;;;;;;;;;;25.86;50.98;100936.78;4994562;28;7266;-83
2022/09/11 10:31:05;;;;;;;;;;;;;;;26.72;49.00;100932.50;4920008;28;6797;-84
2022/09/11 10:33:40;;;;;;;;;;;;;;;26.82;48.94;100935.03;4984902;28;6997;-83
2022/09/11 10:36:33;;;;;;;;;;;;;;;27.27;48.61;100929.25;4986687;28;6964;-84
2022/09/11 10:39:40;;;;;;;;;;;;;;;28.15;47.70;100932.34;4978548;28;8453;-84
2022/09/11 10:42:47;;;;;;;;;;;;;;;;;;;;;
2022/09/11 10:45:56;;;;;;;;;;;;;;;;;;;;;
2022/09/11 10:48:57;;;;;;;;;;;;;;;28.87;45.92;100939.03;4989113;28;7090;-83
2022/09/11 10:52:24;;;;;;;;;;;;;;;;;;;;;
2022/09/11 10:55:53;;;;;;;;;;;;;;;;;;;;;
2022/09/11 10:59:15;;;;;;;;;;;;;;;29.59;45.69;100926.06;4965527;28;6817;-83
2022/09/11 11:02:03;;;;;;;;;;;;;;;;;;;;;
2022/09/11 11:12:10;;;;;;;;;;;;;;;;;;;;;
2022/09/11 11:15:50;;;;;;;;;;;;;;;;;;;;;
2022/09/11 11:23:38;;;;;;;;;;;;;;;;;;;;;
2022/09/11 11:26:36;;;;;;;;;;;;;;;29.26;43.52;100928.56;4972916;28;6844;-84
2022/09/11 11:29:59;;;;;;;;;;;;;;;30.35;41.72;100921.59;4973684;28;6978;-83
2022/09/11 11:37:20;;;;;;;;;;;;;;;;;;;;;
2022/09/11 11:40:37;;;;;;;;;;;;;;;32.80;36.97;100921.97;4969789;28;6820;-83
2022/09/11 11:43:45;;;;;;;;;;;;;;;;;;;;;
2022/09/11 11:47:19;;;;;;;;;;;;;;;32.09;36.24;100925.31;4990466;28;6835;-83
2022/09/11 11:51:04;;;;;;;;;;;;;;;;;;;;;
2022/09/11 11:54:50;;;;;;;;;;;;;;;30.79;38.87;100925.72;4915372;29;6867;-84
2022/09/11 11:58:19;;;;;;;;;;;;;;;;;;;;;
2022/09/11 12:01:03;;;;;;;;;;;;;;;31.21;37.26;100918.34;4962856;28;6836;-84
2022/09/11 12:11:34;;;;;;;;;;;;;;;31.04;37.42;100909.97;4934097;29;7231;-84
2022/09/11 12:15:03;;;;;;;;;;;;;;;31.13;36.97;100919.44;4905625;28;6830;-84
2022/09/11 12:25:04;;;;;;;;;;;;;;;;;;;;;
2022/09/11 12:29:18;;;;;;;;;;;;;;;;;;;;;
2022/09/11 12:32:52;;;;;;;;;;;;;;;;;;;;;
2022/09/11 12:36:44;;;;;;;;;;;;;;;;;;;;;
2022/09/11 12:40:09;;;;;;;;;;;;;;;;;;;;;
2022/09/11 12:43:27;;;;;;;;;;;;;;;;;;;;;
2022/09/11 12:46:32;;;;;;;;;;;;;;;;;;;;;
2022/09/11 12:49:40;;;;;;;;;;;;;;;;;;;;;
2022/09/11 12:56:38;;;;;;;;;;;;;;;;;;;;;
2022/09/11 12:59:29;;;;;;;;;;;;;;;31.21;34.58;100886.59;4976527;28;6832;-83
2022/09/11 13:02:50;;;;;;;;;;;;;;;31.88;34.09;100887.16;4964333;28;7160;-84
2022/09/11 13:05:44;;;;;;;;;;;;;;;;;;;;;
2022/09/11 13:09:38;;;;;;;;;;;;;;;;;;;;;
2022/09/11 13:12:36;;;;;;;;;;;;;;;33.37;31.46;100874.66;4971737;28;6814;-83
2022/09/11 13:15:50;;;;;;;;;;;;;;;33.52;30.67;100873.19;4992069;28;7006;-84
2022/09/11 13:19:31;;;;;;;;;;;;;;;;;;;;;
2022/09/11 13:23:00;;;;;;;;;;;;;;;;;;;;;
2022/09/11 13:25:46;;;;;;;;;;;;;;;32.89;30.29;100857.06;4871051;29;6838;-84
2022/09/11 13:28:52;;;;;;;;;;;;;;;;;;;;;
2022/09/11 13:31:29;;;;;;;;;;;;;;;32.40;31.03;100852.69;4897559;29;6831;-84
2022/09/11 13:34:11;;;;;;;;;;;;;;;;;;;;;
2022/09/11 13:40:24;;;;;;;;;;;;;;;29.94;32.64;100865.38;4919668;29;6810;-83
2022/09/11 13:43:14;;;;;;;;;;;;;;;29.49;34.43;100854.16;4952223;28;6831;-83
2022/09/11 13:45:55;;;;;;;;;;;;;;;29.36;34.61;100852.69;4995923;28;7012;-84
2022/09/11 13:48:42;;;;;;;;;;;;;;;29.01;34.71;100857.84;4975433;28;6810;-83
2022/09/11 13:51:48;;;;;;;;;;;;;;;;;;;;;
2022/09/11 13:55:27;;;;;;;;;;;;;;;29.50;34.46;100852.34;4989441;28;6821;-84
2022/09/11 13:58:31;;;;;;;;;;;;;;;;;;;;;
2022/09/11 14:01:36;;;;;;;;;;;;;;;29.70;34.02;100843.97;4971847;28;7187;-84
2022/09/11 14:04:10;;;;;;;;;;;;;;;29.93;34.54;100845.13;4993796;28;6796;-84
2022/09/11 14:07:10;;;;;;;;;;;;;;;;;;;;;
2022/09/11 14:10:04;;;;;;;;;;;;;;;30.80;33.26;100834.84;4935233;29;6883;-83
2022/09/11 14:19:20;;;;;;;;;;;;;;;31.78;31.42;100817.69;4973444;28;6957;-83
2022/09/11 14:21:51;;;;;;;;;;;;;;;31.87;30.99;100806.81;4991594;28;6909;-84
2022/09/11 14:24:58;;;;;;;;;;;;;;;;;;;;;
2022/09/11 14:27:43;;;;;;;;;;;;;;;31.99;30.84;100808.13;4988334;28;6900;-83
2022/09/11 14:30:52;;;;;;;;;;;;;;;;;;;;;
2022/09/11 14:33:36;;;;;;;;;;;;;;;;;;;;;
2022/09/11 14:36:28;;;;;;;;;;;;;;;32.13;30.67;100797.91;4973628;28;6824;-84
2022/09/11 14:43:12;;;;;;;;;;;;;;;32.16;30.50;100791.66;4933080;29;6780;-84
2022/09/11 14:46:03;;;;;;;;;;;;;;;;;;;;;
2022/09/11 14:48:38;;;;;;;;;;;;;;;32.04;30.74;100800.91;4932399;29;6867;-84
2022/09/11 14:54:59;;;;;;;;;;;;;;;;;;;;;
2022/09/11 14:57:59;;;;;;;;;;;;;;;;;;;;;
2022/09/11 15:01:21;;;;;;;;;;;;;;;30.93;31.40;100784.22;4919851;29;7221;-84
2022/09/11 15:03:46;;;;;;;;;;;;;;;30.73;31.92;100778.63;4918538;29;6986;-84
2022/09/11 15:06:19;;;;;;;;;;;;;;;30.60;31.92;100788.69;4934390;28;8435;-84
2022/09/11 15:08:55;;;;;;;;;;;;;;;30.61;31.84;100789.56;4987127;28;6796;-83
2022/09/11 15:11:37;;;;;;;;;;;;;;;;;;;;;
2022/09/11 15:14:18;;;;;;;;;;;;;;;30.56;31.64;100792.34;4993081;28;6792;-84
2022/09/11 15:16:47;;;;;;;;;;;;;;;30.53;32.07;100781.88;4990492;28;6982;-84
2022/09/11 15:20:08;;;;;;;;;;;;;;;;;;;;;
2022/09/11 15:22:54;;;;;;;;;;;;;;;30.19;32.33;100788.13;4972934;28;6844;-83
2022/09/11 15:25:23;;;;;;;;;;;;;;;30.02;32.57;100780.63;4981653;28;7285;-84
2022/09/11 15:28:22;;;;;;;;;;;;;;;;;;;;;
2022/09/11 15:31:09;;;;;;;;;;;;;;;29.60;32.74;100779.09;4981407;28;6899;-84
2022/09/11 15:33:35;;;;;;;;;;;;;;;29.36;32.91;100782.25;4990413;28;6968;-83
2022/09/11 15:36:49;;;;;;;;;;;;;;;29.20;33.88;100775.63;4977054;28;6978;-83
2022/09/11 15:39:24;;;;;;;;;;;;;;;29.13;33.96;100780.19;4978110;28;6996;-84
2022/09/11 15:41:56;;;;;;;;;;;;;;;29.11;34.51;100782.84;4994158;28;7142;-83
2022/09/11 15:44:49;;;;;;;;;;;;;;;29.07;34.29;100773.28;4992940;28;6804;-83
2022/09/11 15:47:30;;;;;;;;;;;;;;;29.00;33.83;100778.75;4977434;28;7745;-84
2022/09/11 15:50:46;;;;;;;;;;;;;;;28.81;33.77;100769.44;4993386;28;7049;-83
2022/09/11 15:53:17;;;;;;;;;;;;;;;28.56;34.09;100766.47;4961825;28;7061;-84
2022/09/11 15:55:46;;;;;;;;;;;;;;;28.37;34.73;100758.94;4994859;28;7227;-83
2022/09/11 15:58:34;;;;;;;;;;;;;;;28.20;34.61;100761.94;4988956;28;6842;-83
2022/09/11 16:01:55;;;;;;;;;;;;;;;;;;;;;
2022/09/11 16:04:49;;;;;;;;;;;;;;;27.82;35.65;100763.50;4957041;28;6797;-84
2022/09/11 16:07:16;;;;;;;;;;;;;;;27.55;35.84;100752.56;4964490;28;7153;-83
2022/09/11 16:09:42;;;;;;;;;;;;;;;27.38;36.18;100765.97;4980546;28;7255;-83
2022/09/11 16:12:27;;;;;;;;;;;;;;;27.23;36.66;100767.94;4992200;28;7219;-84
2022/09/11 16:15:03;;;;;;;;;;;;;;;27.08;36.64;100765.56;4974951;28;8658;-83
2022/09/11 16:17:32;;;;;;;;;;;;;;;26.97;36.91;100770.97;4991713;28;6784;-84
2022/09/11 16:20:00;;;;;;;;;;;;;;;26.84;37.00;100775.50;4990888;28;7151;-84
2022/09/11 16:22:35;;;;;;;;;;;;;;;26.67;36.86;100768.75;4980516;28;7007;-84
2022/09/11 16:25:11;;;;;;;;;;;;;;;;;;;;;
2022/09/11 16:27:38;;;;;;;;;;;;;;;26.40;37.10;100767.31;4981707;28;6801;-83
2022/09/11 16:30:12;;;;;;;;;;;;;;;26.29;37.49;100765.69;4981879;28;6865;-84
2022/09/11 16:32:50;;;;;;;;;;;;;;;26.18;37.88;100760.53;4959830;28;6981;-84
2022/09/11 16:35:31;;;;;;;;;;;;;;;26.10;38.39;100762.38;4977059;28;7174;-83
2022/09/11 16:39:01;;;;;;;;;;;;;;;;;;;;;
2022/09/11 16:42:07;;;;;;;;;;;;;;;;;;;;;
2022/09/11 16:44:53;;;;;;;;;;;;;;;;;;;;;
2022/09/11 16:50:49;;;;;;;;;;;;;;;;;;;;;
2022/09/11 16:53:50;;;;;;;;;;;;;;;25.49;39.32;100759.41;4992255;28;6826;-83
2022/09/11 16:56:25;;;;;;;;;;;;;;;25.40;39.64;100759.47;4948708;28;7014;-83
2022/09/11 16:59:17;;;;;;;;;;;;;;;;;;;;;
2022/09/11 17:02:38;;;;;;;;;;;;;;;25.21;39.77;100757.03;4975627;28;6927;-83
2022/09/11 17:05:45;;;;;;;;;;;;;;;;;;;;;
2022/09/11 17:08:29;;;;;;;;;;;;;;;25.01;40.76;100738.78;4992338;28;6824;-84
2022/09/11 17:11:53;;;;;;;;;;;;;;;;;;;;;
2022/09/11 17:14:48;;;;;;;;;;;;;;;24.84;40.48;100749.41;4980264;28;6994;-84
2022/09/11 17:21:58;;;;;;;;;;;;;;;;;;;;;
2022/09/11 17:24:23;;;;;;;;;;;;;;;24.57;41.41;100746.84;4971028;28;7082;-82
2022/09/11 17:27:03;;;;;;;;;;;;;;;24.49;42.03;100746.91;4990249;28;6884;-83
2022/09/11 17:29:32;;;;;;;;;;;;;;;24.41;41.38;100735.56;4990838;28;7050;-83
2022/09/11 17:32:17;;;;;;;;;;;;;;;;;;;;;
2022/09/11 17:34:46;;;;;;;;;;;;;;;24.30;41.98;100737.38;4979525;28;6812;-84
2022/09/11 17:37:16;;;;;;;;;;;;;;;24.20;42.77;100737.41;4976172;28;7007;-83
2022/09/11 17:40:02;;;;;;;;;;;;;;;;;;;;;
2022/09/11 17:42:51;;;;;;;;;;;;;;;23.94;43.07;100725.22;4979456;28;6914;-84
2022/09/11 17:45:29;;;;;;;;;;;;;;;23.81;42.78;100726.13;4988905;28;7235;-84
2022/09/11 17:48:11;;;;;;;;;;;;;;;;;;;;;
2022/09/11 17:51:45;;;;;;;;;;;;;;;23.50;43.82;100724.41;4991741;28;7051;-84
2022/09/11 17:55:03;;;;;;;;;;;;;;;23.29;44.73;100730.53;4989946;28;6823;-83
2022/09/11 17:58:15;;;;;;;;;;;;;;;;;;;;;
2022/09/11 18:01:04;;;;;;;;;;;;;;;22.86;45.71;100726.94;4967627;28;7201;-82
2022/09/11 18:04:12;;;;;;;;;;;;;;;22.66;45.92;100726.03;4958456;28;6976;-83
2022/09/11 18:06:54;;;;;;;;;;;;;;;;;;4973655;28;6897;-83
2022/09/11 18:09:24;;;;;;;;;;;;;;;22.32;47.38;100735.44;4989673;28;6804;-83
2022/09/11 18:12:35;;;;;;;;;;;;;;;;;;;;;
2022/09/11 18:15:34;;;;;;;;;;;;;;;22.07;48.02;100724.00;4974897;28;6912;-83
2022/09/11 18:18:27;;;;;;;;;;;;;;;22.00;48.16;100728.28;4976835;28;7002;-83
2022/09/11 18:21:05;;;;;;;;;;;;;;;21.89;48.24;100728.25;4979093;28;8650;-83
2022/09/11 18:23:50;;;;;;;;;;;;;;;21.78;48.40;100738.59;4992224;28;6808;-83
2022/09/11 18:26:31;;;;;;;;;;;;;;;21.72;49.00;100740.31;4980694;28;6984;-83
2022/09/11 18:29:19;;;;;;;;;;;;;;;21.62;49.37;100739.31;4986917;28;7226;-83
2022/09/11 18:32:02;;;;;;;;;;;;;;;;;;;;;
2022/09/11 18:34:37;;;;;;;;;;;;;;;21.43;49.55;100739.16;4988118;28;6825;-84
2022/09/11 18:37:14;;;;;;;;;;;;;;;21.31;49.93;100739.06;4988687;28;8433;-83
2022/09/11 18:39:49;;;;;;;;;;;;;;;;;;;;;
2022/09/11 18:42:16;;;;;;;;;;;;;;;21.12;50.25;100741.50;4983926;28;6935;-83